createdAt,value
2023-02-11T00:01:08.486Z,9.40
2023-02-11T00:03:38.850Z,8.73
2023-02-11T00:06:09.520Z,9.57
2023-02-11T00:08:37.546Z,7.82
2023-02-11T00:11:05.757Z,9.27
2023-02-11T00:13:35.971Z,8.07
2023-02-11T00:16:08.125Z,8.50
2023-02-11T00:18:36.730Z,8.07
2023-02-11T00:21:08.694Z,7.55
2023-02-11T00:23:37.041Z,8.20
2023-02-11T00:26:05.474Z,7.28
2023-02-11T00:28:33.454Z,8.35
2023-02-11T00:31:03.196Z,8.13
2023-02-11T00:33:30.961Z,7.95
2023-02-11T00:35:59.071Z,7.60
2023-02-11T00:38:28.540Z,7.40
2023-02-11T00:40:56.972Z,7.80
2023-02-11T00:43:26.881Z,7.05
2023-02-11T00:45:54.759Z,7.75
2023-02-11T00:48:24.464Z,8.18
2023-02-11T00:50:52.667Z,8.60
2023-02-11T00:53:21.628Z,7.68
2023-02-11T00:55:49.900Z,7.43
2023-02-11T00:58:17.925Z,8.18
2023-02-11T01:00:45.965Z,8.23
2023-02-11T01:03:15.168Z,8.00
2023-02-11T01:05:44.500Z,7.88
2023-02-11T01:08:13.090Z,7.15
2023-02-11T01:10:40.956Z,6.95
2023-02-11T01:13:09.511Z,7.55
2023-02-11T01:15:37.909Z,7.43
2023-02-11T01:18:06.479Z,7.65
2023-02-11T01:20:34.508Z,7.25
2023-02-11T01:23:03.725Z,7.93
2023-02-11T01:25:31.588Z,7.88
2023-02-11T01:27:59.404Z,8.25
2023-02-11T01:30:32.069Z,7.13
2023-02-11T01:33:00.160Z,6.97
2023-02-11T01:35:27.935Z,6.82
2023-02-11T01:37:57.232Z,7.00
2023-02-11T01:40:27.016Z,7.03
2023-02-11T01:42:54.786Z,6.38
2023-02-11T01:45:56.789Z,7.15
2023-02-11T01:48:26.837Z,7.07
2023-02-11T01:50:57.794Z,6.28
2023-02-11T01:53:45.664Z,7.80
2023-02-11T01:56:33.150Z,6.18
2023-02-11T01:59:05.177Z,6.47
2023-02-11T02:01:34.881Z,6.80
2023-02-11T02:04:06.014Z,7.40
2023-02-11T02:06:36.425Z,6.82
2023-02-11T02:09:06.907Z,6.63
2023-02-11T02:11:36.791Z,7.35
2023-02-11T02:14:04.991Z,6.25
2023-02-11T02:16:36.013Z,7.70
2023-02-11T02:19:23.609Z,6.50
2023-02-11T02:22:31.352Z,7.22
2023-02-11T02:25:14.193Z,6.97
2023-02-11T02:27:49.028Z,7.00
2023-02-11T02:30:41.572Z,6.93
2023-02-11T02:33:25.164Z,6.40
2023-02-11T02:35:59.667Z,6.75
2023-02-11T02:38:31.796Z,7.20
2023-02-11T02:41:02.104Z,7.47
2023-02-11T02:43:30.286Z,6.88
2023-02-11T02:46:11.893Z,7.20
2023-02-11T02:48:41.337Z,7.00
2023-02-11T02:51:17.580Z,7.38
2023-02-11T02:53:56.355Z,7.00
2023-02-11T02:56:27.511Z,7.60
2023-02-11T02:59:13.857Z,7.53
2023-02-11T03:01:49.222Z,7.20
2023-02-11T03:04:22.677Z,7.07
2023-02-11T03:06:56.541Z,7.95
2023-02-11T03:09:27.695Z,8.45
2023-02-11T03:11:56.426Z,7.75
2023-02-11T03:14:26.999Z,9.05
2023-02-11T03:16:56.341Z,8.10
2023-02-11T03:19:28.476Z,8.43
2023-02-11T03:21:57.613Z,7.72
2023-02-11T03:24:29.295Z,8.40
2023-02-11T03:26:59.328Z,7.85
2023-02-11T03:29:33.245Z,8.20
2023-02-11T03:32:06.173Z,8.65
2023-02-11T03:34:40.763Z,9.00
2023-02-11T03:37:11.417Z,9.43
2023-02-11T03:39:43.086Z,9.20
2023-02-11T03:42:12.557Z,8.95
2023-02-11T03:44:45.321Z,9.05
2023-02-11T03:47:14.322Z,9.85
2023-02-11T03:49:44.700Z,10.00
2023-02-11T03:52:13.166Z,10.95
2023-02-11T03:54:43.448Z,9.77
2023-02-11T03:57:11.275Z,11.55
2023-02-11T03:59:55.661Z,9.55
2023-02-11T04:02:25.543Z,9.77
2023-02-11T04:04:54.770Z,11.23
2023-02-11T04:07:22.947Z,10.73
2023-02-11T04:09:53.298Z,10.88
2023-02-11T04:12:21.227Z,11.40
2023-02-11T04:14:49.002Z,11.95
2023-02-11T04:17:18.589Z,12.07
2023-02-11T04:19:46.517Z,12.15
2023-02-11T04:22:15.793Z,12.38
2023-02-11T04:24:44.290Z,12.30
2023-02-11T04:27:12.153Z,11.90
2023-02-11T04:29:40.211Z,12.82
2023-02-11T04:32:08.111Z,12.75
2023-02-11T04:34:35.951Z,13.68
2023-02-11T04:37:03.749Z,11.90
2023-02-11T04:39:34.555Z,13.15
2023-02-11T04:42:02.435Z,13.38
2023-02-11T04:44:30.409Z,12.30
2023-02-11T04:46:58.377Z,13.50
2023-02-11T04:49:26.302Z,13.95
2023-02-11T04:51:54.229Z,13.05
2023-02-11T04:54:22.074Z,13.60
2023-02-11T04:56:51.413Z,13.45
2023-02-11T04:59:19.352Z,13.38
2023-02-11T05:01:47.065Z,13.77
2023-02-11T05:04:15.102Z,13.95
2023-02-11T05:06:42.949Z,14.77
2023-02-11T05:09:12.370Z,14.15
2023-02-11T05:11:40.430Z,14.30
2023-02-11T05:14:09.906Z,15.50
2023-02-11T05:16:41.209Z,15.18
2023-02-11T05:19:09.393Z,15.40
2023-02-11T05:21:37.124Z,16.48
2023-02-11T05:24:05.594Z,15.20
2023-02-11T05:26:33.812Z,15.77
2023-02-11T05:29:01.667Z,15.77
2023-02-11T05:31:30.999Z,15.32
2023-02-11T05:33:58.936Z,16.17
2023-02-11T05:36:26.779Z,17.40
2023-02-11T05:38:57.112Z,15.77
2023-02-11T05:41:25.233Z,16.30
2023-02-11T05:43:53.086Z,16.45
2023-02-11T05:46:21.002Z,18.45
2023-02-11T05:48:50.110Z,17.75
2023-02-11T05:51:17.956Z,17.58
2023-02-11T05:53:45.765Z,18.20
2023-02-11T05:56:14.660Z,18.10
2023-02-11T05:58:43.181Z,18.90
2023-02-11T06:01:11.066Z,19.73
2023-02-11T06:03:39.003Z,20.50
2023-02-11T06:06:11.521Z,18.30
2023-02-11T06:08:41.216Z,18.58
2023-02-11T06:11:09.177Z,19.48
2023-02-11T06:13:37.171Z,17.90
2023-02-11T06:16:05.656Z,19.63
2023-02-11T06:18:33.721Z,18.95
2023-02-11T06:21:01.519Z,18.15
2023-02-11T06:23:31.949Z,17.27
2023-02-11T06:26:04.177Z,18.83
2023-02-11T06:28:32.472Z,18.13
2023-02-11T06:31:02.488Z,18.65
2023-02-11T06:33:30.670Z,17.75
2023-02-11T06:35:58.486Z,18.27
2023-02-11T06:38:26.560Z,18.52
2023-02-11T06:40:55.637Z,19.50
2023-02-11T06:43:26.808Z,19.42
2023-02-11T06:45:55.293Z,19.15
2023-02-11T06:48:24.279Z,20.15
2023-02-11T06:50:52.238Z,21.13
2023-02-11T06:53:20.648Z,20.33
2023-02-11T06:55:48.797Z,22.20
2023-02-11T06:58:18.288Z,21.20
2023-02-11T07:00:46.319Z,21.10
2023-02-11T07:03:14.122Z,20.35
2023-02-11T07:05:44.052Z,21.77
2023-02-11T07:08:11.969Z,22.60
2023-02-11T07:10:39.719Z,24.50
2023-02-11T07:13:07.656Z,23.70
2023-02-11T07:15:37.708Z,24.40
2023-02-11T07:18:06.182Z,24.83
2023-02-11T07:20:34.236Z,25.00
2023-02-11T07:23:02.051Z,25.10
2023-02-11T07:25:29.845Z,24.20
2023-02-11T07:27:57.898Z,24.85
2023-02-11T07:30:25.847Z,25.45
2023-02-11T07:32:55.065Z,23.88
2023-02-11T07:35:22.805Z,26.30
2023-02-11T07:37:50.724Z,25.00
2023-02-11T07:40:18.612Z,25.05
2023-02-11T07:42:47.776Z,25.23
2023-02-11T07:45:16.414Z,26.05
2023-02-11T07:47:44.130Z,25.33
2023-02-11T07:50:13.265Z,26.80
2023-02-11T07:52:41.044Z,25.48
2023-02-11T07:55:10.236Z,26.25
2023-02-11T07:57:38.468Z,26.52
2023-02-11T08:00:07.573Z,26.75
2023-02-11T08:02:38.502Z,26.35
2023-02-11T08:05:08.229Z,27.27
2023-02-11T08:07:37.605Z,25.92
2023-02-11T08:10:07.177Z,26.67
2023-02-11T08:12:35.793Z,27.13
2023-02-11T08:15:03.558Z,27.92
2023-02-11T08:17:31.641Z,26.55
2023-02-11T08:19:59.411Z,27.30
2023-02-11T08:22:27.320Z,28.17
2023-02-11T08:24:58.413Z,26.52
2023-02-11T08:27:26.752Z,28.35
2023-02-11T08:29:55.180Z,27.88
2023-02-11T08:32:25.560Z,26.48
2023-02-11T08:34:56.272Z,28.30
2023-02-11T08:37:24.739Z,28.50
2023-02-11T08:39:52.609Z,27.67
2023-02-11T08:42:21.793Z,25.65
2023-02-11T08:44:49.757Z,27.55
2023-02-11T08:47:20.412Z,27.15
2023-02-11T08:49:48.592Z,26.85
2023-02-11T08:52:16.848Z,27.95
2023-02-11T08:54:44.730Z,27.55
2023-02-11T08:57:12.680Z,25.48
2023-02-11T08:59:42.040Z,27.80
2023-02-11T09:02:13.238Z,28.05
2023-02-11T09:04:41.458Z,26.40
2023-02-11T09:07:09.306Z,27.67
2023-02-11T09:09:37.123Z,26.63
2023-02-11T09:12:05.285Z,25.60
2023-02-11T09:14:33.005Z,26.50
2023-02-11T09:17:02.222Z,26.05
2023-02-11T09:19:30.373Z,25.90
2023-02-11T09:21:58.790Z,27.70
2023-02-11T09:24:26.634Z,27.20
2023-02-11T09:26:54.789Z,25.95
2023-02-11T09:29:24.088Z,26.70
2023-02-11T09:31:52.259Z,25.50
2023-02-11T09:34:21.650Z,26.42
2023-02-11T09:36:49.760Z,27.33
2023-02-11T09:39:20.326Z,27.58
2023-02-11T09:42:04.228Z,26.48
2023-02-11T09:44:35.158Z,27.73
2023-02-11T09:47:05.479Z,26.45
2023-02-11T09:49:40.751Z,24.95
2023-02-11T09:52:15.544Z,26.95
2023-02-11T09:54:55.831Z,26.73
2023-02-11T09:57:28.824Z,26.08
2023-02-11T09:59:57.749Z,25.88
2023-02-11T10:02:31.065Z,25.08
2023-02-11T10:05:15.210Z,25.30
2023-02-11T10:07:49.357Z,26.15
2023-02-11T10:12:57.153Z,24.38
2023-02-11T10:15:32.936Z,25.77
2023-02-11T10:18:21.794Z,24.08
2023-02-11T10:21:02.758Z,25.20
2023-02-11T10:23:35.349Z,24.23
2023-02-11T10:26:03.617Z,25.23
2023-02-11T10:28:34.192Z,24.30
2023-02-11T10:31:05.417Z,23.90
2023-02-11T10:33:38.274Z,23.13
2023-02-11T10:36:08.954Z,23.98
2023-02-11T10:38:37.954Z,22.88
2023-02-11T10:41:06.553Z,23.33
2023-02-11T10:43:36.101Z,22.00
2023-02-11T10:46:06.169Z,23.98
2023-02-11T10:48:44.175Z,22.95
2023-02-11T10:51:21.832Z,22.85
2023-02-11T10:53:51.580Z,22.88
2023-02-11T10:56:28.309Z,23.83
2023-02-11T10:59:00.325Z,22.20
2023-02-11T11:01:46.633Z,21.75
2023-02-11T11:04:36.750Z,21.25
2023-02-11T11:07:16.160Z,22.08
2023-02-11T11:09:52.372Z,21.83
2023-02-11T11:12:29.088Z,20.77
2023-02-11T11:15:01.615Z,21.08
2023-02-11T11:17:33.040Z,20.25
2023-02-11T11:20:27.429Z,20.55
2023-02-11T11:23:12.428Z,19.42
2023-02-11T11:25:42.623Z,19.98
2023-02-11T11:28:24.337Z,19.23
2023-02-11T11:30:55.472Z,17.67
2023-02-11T11:33:26.586Z,18.20
2023-02-11T11:36:02.873Z,17.95
2023-02-11T11:38:34.352Z,16.10
2023-02-11T11:41:24.163Z,16.63
2023-02-11T11:44:01.074Z,16.17
2023-02-11T11:46:35.151Z,16.48
2023-02-11T11:49:09.053Z,15.93
2023-02-11T11:51:39.335Z,16.05
2023-02-11T11:54:13.584Z,15.18
2023-02-11T11:59:13.672Z,14.93
2023-02-11T12:01:51.093Z,14.85
2023-02-11T12:04:34.805Z,14.60
2023-02-11T12:07:14.037Z,13.60
2023-02-11T12:09:52.688Z,15.18
2023-02-11T12:12:32.322Z,13.45
2023-02-11T12:15:09.561Z,13.52
2023-02-11T12:17:53.475Z,13.27
2023-02-11T12:20:28.794Z,14.48
2023-02-11T12:23:19.859Z,12.32
2023-02-11T12:25:58.886Z,12.95
2023-02-11T12:28:39.315Z,12.00
2023-02-11T12:31:25.561Z,11.90
2023-02-11T12:34:38.114Z,12.15
2023-02-11T12:37:15.679Z,13.18
2023-02-11T12:39:51.167Z,12.13
2023-02-11T12:42:58.666Z,11.55
2023-02-11T12:45:46.019Z,11.00
2023-02-11T12:48:26.351Z,10.73
2023-02-11T12:51:01.664Z,10.90
2023-02-11T12:53:54.591Z,10.77
2023-02-11T12:56:25.962Z,10.55
2023-02-11T12:58:57.516Z,10.38
2023-02-11T13:01:31.032Z,9.88
2023-02-11T13:04:03.297Z,9.70
2023-02-11T13:06:42.620Z,10.25
2023-02-11T13:09:19.246Z,10.55
2023-02-11T13:11:52.207Z,9.75
2023-02-11T13:14:28.658Z,9.68
2023-02-11T13:17:00.461Z,8.40
2023-02-11T13:19:36.001Z,9.07
2023-02-11T13:22:08.430Z,9.30
2023-02-11T13:24:44.370Z,9.90
2023-02-11T13:27:24.376Z,10.40
2023-02-11T13:30:21.503Z,12.57
2023-02-11T13:33:07.705Z,13.35
2023-02-11T13:35:37.017Z,13.40
2023-02-11T13:38:05.986Z,12.93
2023-02-11T13:40:36.141Z,14.63
2023-02-11T13:43:05.324Z,13.07
2023-02-11T13:45:36.022Z,13.70
2023-02-11T13:48:06.912Z,13.55
2023-02-11T13:50:39.061Z,11.82
2023-02-11T13:53:07.980Z,12.55
2023-02-11T13:55:36.624Z,11.15
2023-02-11T13:58:43.510Z,11.77
2023-02-11T14:01:14.896Z,11.27
2023-02-11T14:04:38.113Z,10.93
2023-02-11T14:07:46.942Z,11.02
2023-02-11T14:10:48.750Z,11.05
2023-02-11T14:13:25.157Z,10.65
2023-02-11T14:16:07.627Z,10.95
2023-02-11T14:19:02.559Z,10.80
2023-02-11T14:21:37.385Z,10.13
2023-02-11T14:24:44.685Z,10.25
2023-02-11T14:27:21.547Z,10.88
2023-02-11T14:29:59.612Z,9.80
2023-02-11T14:32:39.535Z,7.32
2023-02-11T14:35:15.252Z,7.10
2023-02-11T14:37:50.646Z,6.38
2023-02-11T14:40:27.219Z,6.78
2023-02-11T14:42:55.571Z,6.28
2023-02-11T14:45:26.947Z,6.03
2023-02-11T14:47:59.320Z,6.85
2023-02-11T14:50:30.255Z,6.38
2023-02-11T14:53:00.264Z,6.55
2023-02-11T14:55:31.000Z,6.88
2023-02-11T14:58:12.586Z,5.72
2023-02-11T15:00:51.525Z,6.25
2023-02-11T15:03:35.876Z,7.07
2023-02-11T15:06:07.656Z,6.28
2023-02-11T15:08:37.190Z,6.80
2023-02-11T15:11:09.616Z,6.82
2023-02-11T15:13:38.049Z,7.38
2023-02-11T15:16:08.088Z,6.63
2023-02-11T15:18:38.909Z,7.80
2023-02-11T15:21:08.670Z,7.63
2023-02-11T15:23:37.580Z,6.80
2023-02-11T15:26:13.980Z,6.78
2023-02-11T15:28:52.195Z,7.82
2023-02-11T15:31:23.251Z,7.30
2023-02-11T15:33:51.667Z,7.00
2023-02-11T15:36:28.700Z,7.38
2023-02-11T15:39:19.070Z,7.10
2023-02-11T15:41:47.176Z,7.97
2023-02-11T15:44:29.740Z,7.80
2023-02-11T15:46:57.842Z,7.70
2023-02-11T15:49:26.929Z,7.55
2023-02-11T15:51:57.108Z,7.65
2023-02-11T15:54:29.552Z,7.32
2023-02-11T15:57:01.709Z,6.70
2023-02-11T15:59:31.671Z,7.43
2023-02-11T16:02:06.205Z,6.85
2023-02-11T16:04:34.497Z,8.10
2023-02-11T16:07:06.280Z,8.45
2023-02-11T16:09:36.519Z,8.00
2023-02-11T16:12:07.606Z,7.95
2023-02-11T16:14:40.111Z,7.57
2023-02-11T16:17:11.074Z,7.88
2023-02-11T16:19:44.660Z,8.30
2023-02-11T16:22:18.834Z,7.88
2023-02-11T16:27:22.000Z,9.55
2023-02-11T16:29:51.104Z,8.95
2023-02-11T16:32:20.961Z,7.93
2023-02-11T16:34:49.139Z,7.68
2023-02-11T16:37:18.784Z,7.32
2023-02-11T16:39:46.665Z,8.20
2023-02-11T16:42:14.616Z,7.75
2023-02-11T16:44:42.581Z,7.45
2023-02-11T16:47:21.720Z,7.90
2023-02-11T16:49:51.349Z,8.70
2023-02-11T16:52:22.842Z,8.57
2023-02-11T16:54:51.012Z,7.78
2023-02-11T16:57:20.456Z,8.20
2023-02-11T16:59:48.906Z,8.13
2023-02-11T17:02:18.241Z,8.55
2023-02-11T17:04:46.403Z,8.60
2023-02-11T17:07:14.448Z,8.20
2023-02-11T17:09:43.867Z,8.30
2023-02-11T17:12:11.567Z,8.90
2023-02-11T17:14:39.966Z,8.90
2023-02-11T17:17:08.051Z,9.20
2023-02-11T17:19:35.790Z,9.82
2023-02-11T17:22:03.995Z,8.82
2023-02-11T17:24:32.346Z,9.93
2023-02-11T17:27:03.512Z,26.88
2023-02-11T17:29:31.630Z,14.70
2023-02-11T17:31:59.790Z,10.60
2023-02-11T17:34:29.426Z,10.02
2023-02-11T17:36:57.948Z,9.60
2023-02-11T17:39:25.941Z,9.93
2023-02-11T17:41:53.688Z,10.27
2023-02-11T17:44:22.901Z,9.43
2023-02-11T17:46:51.166Z,9.52
2023-02-11T17:49:21.808Z,9.73
2023-02-11T17:51:49.957Z,9.20
2023-02-11T17:54:20.217Z,11.10
2023-02-11T17:56:51.154Z,10.70
2023-02-11T17:59:19.117Z,10.20
2023-02-11T18:01:48.789Z,9.88
2023-02-11T18:04:18.186Z,9.52
2023-02-11T18:06:47.007Z,8.98
2023-02-11T18:09:14.939Z,9.90
2023-02-11T18:11:43.978Z,10.02
2023-02-11T18:14:12.799Z,9.20
2023-02-11T18:16:43.257Z,9.90
2023-02-11T18:19:13.693Z,10.18
2023-02-11T18:21:42.762Z,10.18
2023-02-11T18:24:10.954Z,10.43
2023-02-11T18:26:39.175Z,9.82
2023-02-11T18:29:07.442Z,9.43
2023-02-11T18:31:36.568Z,10.43
2023-02-11T18:34:05.792Z,10.10
2023-02-11T18:36:35.695Z,9.73
2023-02-11T18:39:04.163Z,9.55
2023-02-11T18:41:34.250Z,10.02
2023-02-11T18:44:03.444Z,9.85
2023-02-11T18:46:31.749Z,11.23
2023-02-11T18:48:59.650Z,11.15
2023-02-11T18:51:28.190Z,10.07
2023-02-11T18:53:57.387Z,10.73
2023-02-11T18:56:27.929Z,10.90
2023-02-11T18:58:57.576Z,9.77
2023-02-11T19:01:30.251Z,10.85
2023-02-11T19:04:00.013Z,10.63
2023-02-11T19:06:34.033Z,10.07
2023-02-11T19:09:06.176Z,11.40
2023-02-11T19:11:50.697Z,11.07
2023-02-11T19:14:21.701Z,11.00
2023-02-11T19:16:54.171Z,11.05
2023-02-11T19:19:24.021Z,10.55
2023-02-11T19:21:52.673Z,11.18
2023-02-11T19:24:24.113Z,11.07
2023-02-11T19:26:54.124Z,11.85
2023-02-11T19:29:22.057Z,11.27
2023-02-11T19:31:50.261Z,10.68
2023-02-11T19:34:22.076Z,9.98
2023-02-11T19:36:50.796Z,11.32
2023-02-11T19:39:18.834Z,12.30
2023-02-11T19:41:48.179Z,11.25
2023-02-11T19:44:16.710Z,12.05
2023-02-11T19:46:44.605Z,12.30
2023-02-11T19:49:12.858Z,10.95
2023-02-11T19:51:40.672Z,12.00
2023-02-11T19:54:09.745Z,11.10
2023-02-11T19:56:38.599Z,12.35
2023-02-11T19:59:09.103Z,12.40
2023-02-11T20:01:37.656Z,11.68
2023-02-11T20:04:05.692Z,12.15
2023-02-11T20:06:34.337Z,10.85
2023-02-11T20:09:04.231Z,11.35
2023-02-11T20:11:33.156Z,11.10
2023-02-11T20:14:02.190Z,10.75
2023-02-11T20:16:46.886Z,10.73
2023-02-11T20:19:18.003Z,11.70
2023-02-11T20:21:47.774Z,12.57
2023-02-11T20:24:16.109Z,12.73
2023-02-11T20:26:45.271Z,12.07
2023-02-11T20:29:13.641Z,12.82
2023-02-11T20:31:42.884Z,13.20
2023-02-11T20:34:11.429Z,12.15
2023-02-11T20:36:40.542Z,12.35
2023-02-11T20:39:08.997Z,12.38
2023-02-11T20:41:40.156Z,12.13
2023-02-11T20:44:09.777Z,12.35
2023-02-11T20:46:47.055Z,12.93
2023-02-11T20:49:16.779Z,12.25
2023-02-11T20:51:45.059Z,12.10
2023-02-11T20:54:14.058Z,11.77
2023-02-11T20:56:42.098Z,11.52
2023-02-11T20:59:10.121Z,11.93
2023-02-11T21:01:40.606Z,12.15
2023-02-11T21:04:12.982Z,11.73
2023-02-11T21:06:43.748Z,12.75
2023-02-11T21:09:13.623Z,11.80
2023-02-11T21:11:41.854Z,13.05
2023-02-11T21:14:14.487Z,13.50
2023-02-11T21:16:42.919Z,14.55
2023-02-11T21:19:13.971Z,12.07
2023-02-11T21:21:42.183Z,13.90
2023-02-11T21:24:10.914Z,12.90
2023-02-11T21:26:40.313Z,14.35
2023-02-11T21:29:09.115Z,14.55
2023-02-11T21:31:37.722Z,14.48
2023-02-11T21:34:06.318Z,14.15
2023-02-11T21:36:35.545Z,15.20
2023-02-11T21:39:04.006Z,14.90
2023-02-11T21:41:32.612Z,15.32
2023-02-11T21:44:00.310Z,14.27
2023-02-11T21:46:28.596Z,14.27
2023-02-11T21:48:56.382Z,13.63
2023-02-11T21:51:25.524Z,14.73
2023-02-11T21:53:58.983Z,13.98
2023-02-11T21:56:28.169Z,14.52
2023-02-11T21:58:57.486Z,13.63
2023-02-11T22:01:27.234Z,13.77
2023-02-11T22:03:55.094Z,13.40
2023-02-11T22:06:26.161Z,14.25
2023-02-11T22:08:54.690Z,14.25
2023-02-11T22:11:24.194Z,13.98
2023-02-11T22:13:54.639Z,13.35
2023-02-11T22:16:22.751Z,13.93
2023-02-11T22:18:51.519Z,13.52
2023-02-11T22:21:21.138Z,13.73
2023-02-11T22:23:49.754Z,13.77
2023-02-11T22:26:19.770Z,13.60
2023-02-11T22:28:49.682Z,15.55
2023-02-11T22:31:19.271Z,15.25
2023-02-11T22:33:47.325Z,15.48
2023-02-11T22:36:17.274Z,13.43
2023-02-11T22:38:45.108Z,15.20
2023-02-11T22:41:13.515Z,13.32
2023-02-11T22:43:42.984Z,12.73
2023-02-11T22:46:16.641Z,12.25
2023-02-11T22:48:44.874Z,13.25
2023-02-11T22:51:14.676Z,12.32
2023-02-11T22:53:43.731Z,12.50
2023-02-11T22:56:15.330Z,13.25
2023-02-11T22:58:43.933Z,12.75
2023-02-11T23:01:16.036Z,12.63
2023-02-11T23:03:45.028Z,13.35
2023-02-11T23:06:12.861Z,12.70
2023-02-11T23:08:42.912Z,13.00
2023-02-11T23:11:12.712Z,12.85
2023-02-11T23:13:41.924Z,13.80
2023-02-11T23:16:12.099Z,13.82
2023-02-11T23:18:42.789Z,13.15
2023-02-11T23:21:15.924Z,13.82
2023-02-11T23:23:44.070Z,13.63
2023-02-11T23:26:14.781Z,13.95
2023-02-11T23:28:45.930Z,14.45
2023-02-11T23:31:16.209Z,14.00
2023-02-11T23:33:47.479Z,14.50
2023-02-11T23:36:16.328Z,13.32
2023-02-11T23:38:44.555Z,14.50
2023-02-11T23:41:13.065Z,14.07
2023-02-11T23:43:42.263Z,14.15
2023-02-11T23:46:10.439Z,14.60
2023-02-11T23:48:40.317Z,14.27
2023-02-11T23:51:10.648Z,14.65
2023-02-11T23:53:38.669Z,14.30
2023-02-11T23:56:11.199Z,14.75
2023-02-11T23:58:39.012Z,14.55
